C6061 KFMH-KFMH
Flight info
| Callsign | C6061 |
|---|---|
| Flight time | 0h 31m |
| Altitude | 1000 |
| Route | KFMH 412405N0700531W KFMH |
| Aircraft | H60/M-SDFGRY/C |
Departure
| Time | 2026-05-04 03:32 |
|---|---|
| Airport | Cape Cod Coast Guard Air Station (KFMH) |
Arrival
| Time | 2026-05-04 04:03 |
|---|---|
| Airport | Cape Cod Coast Guard Air Station (KFMH) |
| Time | Latitude | Longitude | Altitude | Speed | Heading |
|---|---|---|---|---|---|
| 2026-05-04 03:23 | 41.66529 | -70.52078 | 141 ft | 0 kts | 354° |
| 2026-05-04 03:29 | 41.66530 | -70.52078 | 141 ft | 1 kts | 352° |
| 2026-05-04 03:29 | 41.66530 | -70.52102 | 142 ft | 6 kts | 221° |
| 2026-05-04 03:29 | 41.66466 | -70.52107 | 142 ft | 9 kts | 165° |
| 2026-05-04 03:30 | 41.66449 | -70.52039 | 141 ft | 10 kts | 84° |
| 2026-05-04 03:30 | 41.66457 | -70.51943 | 140 ft | 12 kts | 84° |
| 2026-05-04 03:30 | 41.66466 | -70.51808 | 139 ft | 16 kts | 84° |
| 2026-05-04 03:30 | 41.66477 | -70.51671 | 138 ft | 16 kts | 84° |
| 2026-05-04 03:31 | 41.66488 | -70.51560 | 136 ft | 6 kts | 108° |
| 2026-05-04 03:31 | 41.66488 | -70.51558 | 136 ft | 0 kts | 98° |
| 2026-05-04 03:31 | 41.66487 | -70.51557 | 142 ft | 1 kts | 95° |
| 2026-05-04 03:31 | 41.66487 | -70.51547 | 152 ft | 6 kts | 73° |
| 2026-05-04 03:32 | 41.66597 | -70.51214 | 302 ft | 75 kts | 89° |
| 2026-05-04 03:32 | 41.66114 | -70.50770 | 718 ft | 93 kts | 158° |
| 2026-05-04 03:32 | 41.65490 | -70.50286 | 689 ft | 124 kts | 146° |
| 2026-05-04 03:32 | 41.64772 | -70.49577 | 855 ft | 131 kts | 148° |
| 2026-05-04 03:33 | 41.64050 | -70.48864 | 875 ft | 129 kts | 148° |
| 2026-05-04 03:33 | 41.63358 | -70.48079 | 892 ft | 125 kts | 138° |
| 2026-05-04 03:33 | 41.62773 | -70.47155 | 908 ft | 134 kts | 134° |
| 2026-05-04 03:33 | 41.62185 | -70.46217 | 921 ft | 132 kts | 134° |
| 2026-05-04 03:34 | 41.61598 | -70.45282 | 926 ft | 133 kts | 134° |
| 2026-05-04 03:34 | 41.61006 | -70.44338 | 927 ft | 133 kts | 134° |
| 2026-05-04 03:34 | 41.60418 | -70.43391 | 922 ft | 133 kts | 134° |
| 2026-05-04 03:34 | 41.59829 | -70.42444 | 921 ft | 133 kts | 134° |
| 2026-05-04 03:35 | 41.59232 | -70.41506 | 920 ft | 132 kts | 134° |
| 2026-05-04 03:35 | 41.58632 | -70.40570 | 920 ft | 133 kts | 134° |
| 2026-05-04 03:35 | 41.58034 | -70.39638 | 919 ft | 132 kts | 134° |
| 2026-05-04 03:35 | 41.57435 | -70.38705 | 917 ft | 132 kts | 134° |
| 2026-05-04 03:36 | 41.56835 | -70.37766 | 918 ft | 133 kts | 134° |
| 2026-05-04 03:36 | 41.56443 | -70.37144 | 918 ft | 131 kts | 134° |
| 2026-05-04 03:36 | 41.55857 | -70.36209 | 916 ft | 130 kts | 134° |
| 2026-05-04 03:36 | 41.55224 | -70.35331 | 915 ft | 129 kts | 140° |
| 2026-05-04 03:37 | 41.54572 | -70.34487 | 914 ft | 131 kts | 140° |
| 2026-05-04 03:37 | 41.53908 | -70.33642 | 916 ft | 133 kts | 140° |
| 2026-05-04 03:37 | 41.53243 | -70.32784 | 914 ft | 133 kts | 140° |
| 2026-05-04 03:37 | 41.52575 | -70.31920 | 915 ft | 134 kts | 140° |
| 2026-05-04 03:38 | 41.51919 | -70.31062 | 905 ft | 131 kts | 140° |
| 2026-05-04 03:38 | 41.51264 | -70.30207 | 904 ft | 132 kts | 140° |
| 2026-05-04 03:38 | 41.50621 | -70.29345 | 901 ft | 132 kts | 140° |
| 2026-05-04 03:38 | 41.49981 | -70.28465 | 905 ft | 133 kts | 140° |
| 2026-05-04 03:39 | 41.49338 | -70.27582 | 905 ft | 132 kts | 140° |
| 2026-05-04 03:39 | 41.48698 | -70.26694 | 906 ft | 133 kts | 140° |
| 2026-05-04 03:39 | 41.48054 | -70.25797 | 910 ft | 136 kts | 140° |
| 2026-05-04 03:39 | 41.47404 | -70.24892 | 910 ft | 134 kts | 140° |
| 2026-05-04 03:40 | 41.46758 | -70.23994 | 912 ft | 134 kts | 140° |
| 2026-05-04 03:40 | 41.46114 | -70.23102 | 914 ft | 136 kts | 140° |
| 2026-05-04 03:40 | 41.45461 | -70.22196 | 915 ft | 136 kts | 140° |
| 2026-05-04 03:40 | 41.44808 | -70.21292 | 917 ft | 132 kts | 140° |
| 2026-05-04 03:41 | 41.44208 | -70.20493 | 917 ft | 122 kts | 142° |
| 2026-05-04 03:41 | 41.43535 | -70.19637 | 923 ft | 131 kts | 142° |
| 2026-05-04 03:41 | 41.42825 | -70.18843 | 903 ft | 135 kts | 146° |
| 2026-05-04 03:41 | 41.42163 | -70.18109 | 918 ft | 114 kts | 146° |
| 2026-05-04 03:42 | 41.41583 | -70.17524 | 932 ft | 96 kts | 152° |
| 2026-05-04 03:42 | 41.40915 | -70.16929 | 919 ft | 135 kts | 155° |
| 2026-05-04 03:42 | 41.40009 | -70.16370 | 916 ft | 143 kts | 163° |
| 2026-05-04 03:42 | 41.39135 | -70.16073 | 836 ft | 109 kts | 189° |
| 2026-05-04 03:43 | 41.38523 | -70.16144 | 835 ft | 65 kts | 201° |
| 2026-05-04 03:43 | 41.38243 | -70.16415 | 369 ft | 43 kts | 240° |
| 2026-05-04 03:43 | 41.38152 | -70.16713 | 248 ft | 28 kts | 279° |
| 2026-05-04 03:43 | 41.38227 | -70.16914 | 194 ft | 12 kts | 271° |
| 2026-05-04 03:44 | 41.38249 | -70.16956 | 189 ft | 6 kts | 268° |
| 2026-05-04 03:44 | 41.38270 | -70.17010 | 135 ft | 7 kts | 291° |
| 2026-05-04 03:44 | 41.38291 | -70.17046 | 138 ft | 4 kts | 288° |
| 2026-05-04 03:44 | 41.38312 | -70.17064 | 141 ft | 4 kts | 279° |
| 2026-05-04 03:45 | 41.38314 | -70.17061 | 142 ft | 1 kts | 275° |
| 2026-05-04 03:45 | 41.38313 | -70.17062 | 111 ft | 1 kts | 274° |
| 2026-05-04 03:45 | 41.38305 | -70.17066 | 113 ft | 2 kts | 274° |
| 2026-05-04 03:45 | 41.38293 | -70.17067 | 158 ft | 2 kts | 274° |
| 2026-05-04 03:46 | 41.38289 | -70.17064 | 137 ft | 2 kts | 282° |
| 2026-05-04 03:46 | 41.38301 | -70.17062 | 120 ft | 5 kts | 276° |
| 2026-05-04 03:46 | 41.38311 | -70.17058 | 95 ft | 1 kts | 277° |
| 2026-05-04 03:46 | 41.38317 | -70.17057 | 104 ft | 1 kts | 277° |
| 2026-05-04 03:47 | 41.38311 | -70.17058 | 112 ft | 0 kts | 275° |
| 2026-05-04 03:47 | 41.38320 | -70.17061 | 112 ft | 2 kts | 274° |
| 2026-05-04 03:47 | 41.38318 | -70.17063 | 197 ft | 0 kts | 274° |
| 2026-05-04 03:48 | 41.38384 | -70.17290 | 239 ft | 74 kts | 281° |
| 2026-05-04 03:48 | 41.38647 | -70.18123 | 280 ft | 105 kts | 294° |
| 2026-05-04 03:48 | 41.38944 | -70.19022 | 302 ft | 107 kts | 294° |
| 2026-05-04 03:48 | 41.39228 | -70.19892 | 319 ft | 99 kts | 294° |
| 2026-05-04 03:49 | 41.39504 | -70.20701 | 329 ft | 94 kts | 294° |
| 2026-05-04 03:49 | 41.39766 | -70.21473 | 333 ft | 90 kts | 294° |
| 2026-05-04 03:49 | 41.40011 | -70.22224 | 327 ft | 89 kts | 294° |
| 2026-05-04 03:49 | 41.40267 | -70.22977 | 324 ft | 89 kts | 294° |
| 2026-05-04 03:50 | 41.40532 | -70.23728 | 320 ft | 91 kts | 294° |
| 2026-05-04 03:50 | 41.40806 | -70.24490 | 318 ft | 90 kts | 294° |
| 2026-05-04 03:50 | 41.41082 | -70.25239 | 321 ft | 90 kts | 294° |
| 2026-05-04 03:50 | 41.41350 | -70.25991 | 323 ft | 91 kts | 294° |
| 2026-05-04 03:51 | 41.41625 | -70.26745 | 324 ft | 90 kts | 294° |
| 2026-05-04 03:51 | 41.41903 | -70.27487 | 322 ft | 89 kts | 294° |
| 2026-05-04 03:51 | 41.42181 | -70.28217 | 321 ft | 88 kts | 294° |
| 2026-05-04 03:51 | 41.42455 | -70.28946 | 322 ft | 90 kts | 294° |
| 2026-05-04 03:52 | 41.42728 | -70.29695 | 320 ft | 90 kts | 294° |
| 2026-05-04 03:52 | 41.42998 | -70.30429 | 318 ft | 89 kts | 294° |
| 2026-05-04 03:52 | 41.43276 | -70.31169 | 316 ft | 89 kts | 294° |
| 2026-05-04 03:52 | 41.43547 | -70.31925 | 318 ft | 92 kts | 294° |
| 2026-05-04 03:53 | 41.43817 | -70.32696 | 321 ft | 92 kts | 294° |
| 2026-05-04 03:53 | 41.44091 | -70.33467 | 324 ft | 92 kts | 294° |
| 2026-05-04 03:53 | 41.44363 | -70.34233 | 321 ft | 91 kts | 294° |
| 2026-05-04 03:53 | 41.44643 | -70.34990 | 321 ft | 91 kts | 294° |
| 2026-05-04 03:54 | 41.44920 | -70.35759 | 318 ft | 93 kts | 294° |
| 2026-05-04 03:54 | 41.45210 | -70.36526 | 321 ft | 92 kts | 294° |
| 2026-05-04 03:54 | 41.45496 | -70.37297 | 322 ft | 95 kts | 294° |
| 2026-05-04 03:54 | 41.45774 | -70.38095 | 320 ft | 94 kts | 294° |
| 2026-05-04 03:55 | 41.46062 | -70.38872 | 324 ft | 93 kts | 294° |
| 2026-05-04 03:55 | 41.46342 | -70.39666 | 323 ft | 95 kts | 294° |
| 2026-05-04 03:55 | 41.46624 | -70.40458 | 321 ft | 94 kts | 294° |
| 2026-05-04 03:55 | 41.46905 | -70.41228 | 325 ft | 93 kts | 294° |
| 2026-05-04 03:56 | 41.47176 | -70.42004 | 322 ft | 92 kts | 294° |
| 2026-05-04 03:56 | 41.47449 | -70.42784 | 323 ft | 94 kts | 294° |
| 2026-05-04 03:56 | 41.47727 | -70.43573 | 322 ft | 94 kts | 294° |
| 2026-05-04 03:56 | 41.48015 | -70.44357 | 323 ft | 94 kts | 294° |
| 2026-05-04 03:57 | 41.48305 | -70.45143 | 325 ft | 94 kts | 294° |
| 2026-05-04 03:57 | 41.48586 | -70.45935 | 334 ft | 95 kts | 294° |
| 2026-05-04 03:57 | 41.48861 | -70.46734 | 328 ft | 94 kts | 294° |
| 2026-05-04 03:57 | 41.49135 | -70.47522 | 329 ft | 93 kts | 294° |
| 2026-05-04 03:58 | 41.49663 | -70.49099 | 326 ft | 94 kts | 294° |
| 2026-05-04 03:58 | 41.49928 | -70.49896 | 329 ft | 95 kts | 294° |
| 2026-05-04 03:58 | 41.50193 | -70.50701 | 329 ft | 95 kts | 294° |
| 2026-05-04 03:59 | 41.50461 | -70.51502 | 331 ft | 94 kts | 294° |
| 2026-05-04 03:59 | 41.50727 | -70.52304 | 332 ft | 94 kts | 294° |
| 2026-05-04 03:59 | 41.51019 | -70.53094 | 661 ft | 95 kts | 295° |
| 2026-05-04 03:59 | 41.51304 | -70.53818 | 978 ft | 85 kts | 295° |
| 2026-05-04 04:00 | 41.51587 | -70.54530 | 987 ft | 86 kts | 295° |
| 2026-05-04 04:00 | 41.51865 | -70.55231 | 988 ft | 85 kts | 295° |
| 2026-05-04 04:00 | 41.52144 | -70.55932 | 988 ft | 85 kts | 295° |
| 2026-05-04 04:00 | 41.52419 | -70.56620 | 987 ft | 85 kts | 295° |
| 2026-05-04 04:01 | 41.52767 | -70.57253 | 978 ft | 92 kts | 304° |
| 2026-05-04 04:01 | 41.53146 | -70.57918 | 986 ft | 88 kts | 304° |
| 2026-05-04 04:01 | 41.53518 | -70.58559 | 992 ft | 86 kts | 304° |
| 2026-05-04 04:01 | 41.53898 | -70.59226 | 967 ft | 98 kts | 304° |
| 2026-05-04 04:02 | 41.54318 | -70.59927 | 779 ft | 93 kts | 307° |
| 2026-05-04 04:02 | 41.54727 | -70.60546 | 704 ft | 87 kts | 310° |
| 2026-05-04 04:02 | 41.55133 | -70.61142 | 596 ft | 87 kts | 312° |
| 2026-05-04 04:02 | 41.55624 | -70.61757 | 542 ft | 102 kts | 319° |
| 2026-05-04 04:03 | 41.56185 | -70.62312 | 608 ft | 101 kts | 326° |
| 2026-05-04 04:03 | 41.56772 | -70.62192 | 562 ft | 90 kts | 56° |
| 2026-05-04 04:03 | 41.56680 | -70.61444 | 609 ft | 86 kts | 134° |
| 2026-05-04 04:03 | 41.56352 | -70.61549 | 558 ft | 39 kts | 257° |
| 2026-05-04 04:04 | 41.56367 | -70.61797 | 522 ft | 16 kts | 283° |
| 2026-05-04 04:04 | 41.56428 | -70.61940 | 530 ft | 23 kts | 273° |
| 2026-05-04 04:04 | 41.56494 | -70.62240 | 464 ft | 29 kts | 270° |
| 2026-05-04 04:04 | 41.56492 | -70.62337 | 381 ft | 9 kts | 276° |
| 2026-05-04 04:05 | 41.56515 | -70.62425 | 270 ft | 7 kts | 269° |
| 2026-05-04 04:05 | 41.56517 | -70.62457 | 157 ft | 1 kts | 267° |
| 2026-05-04 04:05 | 41.56515 | -70.62465 | 129 ft | 0 kts | 266° |
| 2026-05-04 04:05 | 41.56514 | -70.62466 | 118 ft | 0 kts | 266° |
| 2026-05-04 04:07 | 41.56511 | -70.62463 | 146 ft | 2 kts | 266° |
| 2026-05-04 04:07 | 41.56644 | -70.62593 | 332 ft | 64 kts | 0° |
| 2026-05-04 04:07 | 41.57337 | -70.62518 | 623 ft | 129 kts | 18° |
| 2026-05-04 04:08 | 41.58213 | -70.61896 | 861 ft | 150 kts | 30° |
| 2026-05-04 04:08 | 41.59107 | -70.61013 | 915 ft | 168 kts | 37° |
| 2026-05-04 04:08 | 41.60003 | -70.59933 | 846 ft | 179 kts | 43° |
| 2026-05-04 04:08 | 41.60867 | -70.58747 | 832 ft | 179 kts | 45° |
| 2026-05-04 04:09 | 41.61760 | -70.57588 | 916 ft | 178 kts | 41° |
| 2026-05-04 04:09 | 41.62687 | -70.56476 | 974 ft | 181 kts | 40° |
| 2026-05-04 04:09 | 41.63659 | -70.55387 | 953 ft | 182 kts | 35° |
| 2026-05-04 04:09 | 41.64615 | -70.54466 | 880 ft | 157 kts | 33° |
| 2026-05-04 04:10 | 41.65496 | -70.53619 | 557 ft | 143 kts | 35° |
| 2026-05-04 04:10 | 41.66140 | -70.53006 | 312 ft | 78 kts | 39° |
| 2026-05-04 04:10 | 41.66340 | -70.52778 | 220 ft | 13 kts | 33° |
| 2026-05-04 04:10 | 41.66397 | -70.52736 | 160 ft | 4 kts | 82° |
| 2026-05-04 04:11 | 41.66397 | -70.52727 | 148 ft | 1 kts | 78° |
| 2026-05-04 04:11 | 41.66393 | -70.52691 | 148 ft | 6 kts | 105° |
| 2026-05-04 04:11 | 41.66389 | -70.52640 | 148 ft | 5 kts | 85° |
| 2026-05-04 04:11 | 41.66390 | -70.52636 | 148 ft | 1 kts | 85° |
| 2026-05-04 04:16 | 41.66392 | -70.52621 | 148 ft | 6 kts | 63° |
| 2026-05-04 04:16 | 41.66416 | -70.52511 | 147 ft | 17 kts | 87° |
| 2026-05-04 04:16 | 41.66428 | -70.52334 | 145 ft | 20 kts | 83° |
| 2026-05-04 04:16 | 41.66468 | -70.52194 | 143 ft | 7 kts | 46° |
| 2026-05-04 04:17 | 41.66471 | -70.52189 | 143 ft | 0 kts | 47° |